Time;durP1;ratioP1;P1;durP2;ratioP2;P2;SDS_P1;SDS_P2;PMS_P1;PMS_P2;Temp;Humidity;BMP_temperature;BMP_pressure;BME280_temperature;BME280_humidity;BME280_pressure;Samples;Min_cycle;Max_cycle;Signal;HPM_P1;HPM_P2
2022/09/05 00:02:05;;;;;;;1999.90;999.90;;;;;;;15.61;100.00;94613.25;4920350;29;20224;-60
2022/09/05 00:04:42;;;;;;;1999.90;999.90;;;;;;;15.53;100.00;94601.00;4936215;29;20185;-59
2022/09/05 00:07:17;;;;;;;1999.90;999.90;;;;;;;15.51;100.00;94597.16;4936557;29;20186;-60
2022/09/05 00:09:58;;;;;;;1999.90;999.90;;;;;;;15.49;100.00;94597.63;4935968;29;20223;-60
2022/09/05 00:12:24;;;;;;;1999.90;999.90;;;;;;;15.46;100.00;94595.00;4935909;29;20205;-59
2022/09/05 00:15:14;;;;;;;1999.90;999.90;;;;;;;15.38;100.00;94594.53;4920171;29;20182;-60
2022/09/05 00:17:51;;;;;;;1999.90;999.90;;;;;;;15.37;100.00;94586.72;4936508;29;20190;-60
2022/09/05 00:20:35;;;;;;;1999.90;999.90;;;;;;;15.38;100.00;94583.53;4936571;29;20185;-59
2022/09/05 00:23:00;;;;;;;1999.90;999.90;;;;;;;15.36;100.00;94587.94;4920047;29;20182;-60
2022/09/05 00:25:37;;;;;;;1999.90;999.90;;;;;;;15.34;100.00;94585.59;4936244;29;20192;-59
2022/09/05 00:28:15;;;;;;;1999.90;999.90;;;;;;;15.34;100.00;94585.59;4935042;29;20186;-60
2022/09/05 00:31:10;;;;;;;1999.90;999.90;;;;;;;15.37;100.00;94581.22;4935677;29;20196;-60
2022/09/05 00:33:56;;;;;;;1999.90;999.90;;;;;;;15.40;100.00;94597.59;4920144;29;20210;-60
2022/09/05 00:36:31;;;;;;;1999.90;999.90;;;;;;;15.40;100.00;94600.34;4936309;29;20220;-59
2022/09/05 00:39:06;;;;;;;1999.90;999.90;;;;;;;15.40;100.00;94603.09;4935982;29;20276;-60
2022/09/05 00:41:32;;;;;;;1999.90;999.90;;;;;;;15.41;100.00;94598.34;4920388;29;20186;-59
2022/09/05 00:44:00;;;;;;;1999.90;999.90;;;;;;;15.37;100.00;94608.75;4935808;29;20189;-60
2022/09/05 00:46:32;;;;;;;1999.90;999.90;;;;;;;15.31;100.00;94611.28;4920395;29;20197;-59
2022/09/05 00:49:20;;;;;;;1999.90;999.90;;;;;;;15.32;100.00;94606.53;4920279;29;20202;-59
2022/09/05 00:52:12;;;;;;;1999.90;999.90;;;;;;;15.31;100.00;94605.78;4935593;29;20205;-59
2022/09/05 00:55:14;;;;;;;1999.90;999.90;;;;;;;15.29;100.00;94608.22;4918453;29;20308;-59
2022/09/05 00:57:59;;;;;;;1999.90;999.90;;;;;;;15.24;100.00;94611.56;4935722;29;20197;-59
2022/09/05 01:00:49;;;;;;;1999.90;999.90;;;;;;;15.21;100.00;94606.97;4920167;29;20185;-59
2022/09/05 01:03:33;;;;;;;1999.90;999.90;;;;;;;15.17;100.00;94598.09;4935978;29;20197;-59
2022/09/05 01:06:28;;;;;;;1999.90;999.90;;;;;;;15.11;100.00;94601.84;4935644;29;20224;-59
2022/09/05 01:09:05;;;;;;;1999.90;999.90;;;;;;;15.12;100.00;94595.16;4936081;29;20336;-59
2022/09/05 01:11:51;;;;;;;1999.90;999.90;;;;;;;15.08;100.00;94592.53;4935936;29;20300;-58
2022/09/05 01:14:49;;;;;;;1999.90;999.90;;;;;;;15.05;100.00;94587.91;4935459;29;20213;-58
2022/09/05 01:18:00;;;;;;;1999.90;999.90;;;;;;;15.03;100.00;94584.88;4919920;29;20197;-59
2022/09/05 01:20:38;;;;;;;1999.90;999.90;;;;;;;15.03;100.00;94581.34;4891852;29;20224;-58
2022/09/05 01:23:14;;;;;;;1999.90;999.90;;;;;;;15.01;100.00;94590.03;4935483;29;20222;-58
2022/09/05 01:26:07;;;;;;;1999.90;999.90;;;;;;;15.01;100.00;94581.78;4935625;29;20261;-58
2022/09/05 01:29:12;;;;;;;1999.90;999.90;;;;;;;14.99;100.00;94587.00;4919133;29;20212;-58
2022/09/05 01:31:44;;;;;;;1999.90;999.90;;;;;;;14.97;100.00;94592.16;4935449;29;20198;-58
2022/09/05 01:34:31;;;;;;;1999.90;999.90;;;;;;;14.96;100.00;94590.63;4935285;29;20214;-58
2022/09/05 01:36:56;;;;;;;1999.90;999.90;;;;;;;14.94;100.00;94592.31;4935219;29;20198;-59
2022/09/05 01:39:31;;;;;;;1999.90;999.90;;;;;;;14.89;100.00;94599.16;4937286;29;20219;-58
2022/09/05 01:42:21;;;;;;;1999.90;999.90;;;;;;;14.89;100.00;94596.41;4938582;29;20227;-59
2022/09/05 01:45:44;;;;;;;1999.90;999.90;;;;;;;14.84;100.00;94599.75;4938311;29;20197;-58
2022/09/05 01:48:35;;;;;;;1999.90;999.90;;;;;;;14.81;100.00;94594.38;4865471;29;20220;-59
2022/09/05 01:51:22;;;;;;;1999.90;999.90;;;;;;;14.78;100.00;94596.03;4881269;29;20191;-58
2022/09/05 01:54:15;;;;;;;1999.90;999.90;;;;;;;14.80;100.00;94592.84;4925285;29;20222;-58
2022/09/05 01:56:40;;;;;;;1999.90;999.90;;;;;;;14.78;100.00;94593.28;4923095;29;20292;-58
2022/09/05 01:59:16;;;;;;;1999.90;999.90;;;;;;;14.75;100.00;94599.69;4938500;29;20285;-58
2022/09/05 02:02:10;;;;;;;1999.90;999.90;;;;;;;14.75;100.00;94596.94;4938170;29;20204;-58
2022/09/05 02:05:05;;;;;;;1999.90;999.90;;;;;;;14.73;100.00;94596.63;4938386;29;20201;-60
2022/09/05 02:07:40;;;;;;;1999.90;999.90;;;;;;;14.68;100.00;94602.69;4938836;29;20284;-58
2022/09/05 02:10:38;;;;;;;1999.90;999.90;;;;;;;14.66;100.00;94605.13;4938142;29;20197;-59
2022/09/05 02:13:35;;;;;;;1999.90;999.90;;;;;;;14.63;100.00;94599.75;4938399;29;20281;-59
2022/09/05 02:16:14;;;;;;;1999.90;999.90;;;;;;;14.60;100.00;94502.50;5194185;27;20604;-59
2022/09/05 02:19:13;;;;;;;1999.90;999.90;;;;;;;14.54;100.00;94522.75;5154912;27;20217;-59
2022/09/05 02:21:57;;;;;;;1999.90;999.90;;;;;;;14.52;100.00;94525.19;5154588;27;20181;-60
2022/09/05 02:24:33;;;;;;;1999.90;999.90;;;;;;;14.49;100.00;94524.09;5154531;27;20216;-59
2022/09/05 02:27:11;;;;;;;1999.90;999.90;;;;;;;14.45;100.00;94533.69;5154973;27;20205;-60
2022/09/05 02:30:01;;;;;;;1999.90;999.90;;;;;;;14.41;100.00;94528.34;5154610;27;20173;-60
2022/09/05 02:32:36;;;;;;;1999.90;999.90;;;;;;;14.39;100.00;94538.25;5154524;27;20188;-59
2022/09/05 02:35:25;;;;;;;1999.90;999.90;;;;;;;14.35;100.00;94552.09;5154235;27;20197;-59
2022/09/05 02:38:01;;;;;;;1999.90;999.90;;;;;;;14.34;100.00;94542.31;5154765;27;20253;-60
2022/09/05 02:40:36;;;;;;;1999.90;999.90;;;;;;;14.30;100.00;94544.44;5154358;27;20174;-59
2022/09/05 02:43:20;;;;;;;1999.90;999.90;;;;;;;14.26;100.00;94543.03;5154719;27;20189;-59
2022/09/05 02:46:26;;;;;;;1999.90;999.90;;;;;;;14.20;100.00;94540.06;5154764;27;20176;-59
2022/09/05 02:49:37;;;;;;;1999.90;999.90;;;;;;;14.16;100.00;94544.91;5067752;27;20210;-59
2022/09/05 02:52:08;;;;;;;1999.90;999.90;;;;;;;14.11;100.00;94548.25;5095954;27;20200;-59
2022/09/05 02:54:38;;;;;;;1999.90;999.90;;;;;;;14.06;100.00;94551.53;5133581;27;20228;-59
2022/09/05 02:57:26;;;;;;;1999.90;999.90;;;;;;;14.03;100.00;94559.91;5133335;27;20182;-59
2022/09/05 03:00:13;;;;;;;1999.90;999.90;;;;;;;14.07;100.00;94550.34;5133179;27;20182;-60
2022/09/05 03:03:04;;;;;;;1999.90;999.90;;;;;;;14.06;100.00;94546.06;5133178;27;20659;-59
2022/09/05 03:05:39;;;;;;;1999.90;999.90;;;;;;;14.03;100.00;94543.44;5133523;27;20193;-59
2022/09/05 03:08:21;;;;;;;1999.90;999.90;;;;;;;14.00;100.00;94552.56;5133017;27;20188;-59
2022/09/05 03:10:59;;;;;;;1999.90;999.90;;;;;;;13.88;100.00;94553.38;5132944;27;20185;-59
2022/09/05 03:13:31;;;;;;;1999.90;999.90;;;;;;;13.76;100.00;94538.47;5133848;27;20218;-59
2022/09/05 03:16:28;;;;;;;1999.90;999.90;;;;;;;13.72;100.00;94537.84;5133631;27;20205;-59
2022/09/05 03:19:31;;;;;;;1999.90;999.90;;;;;;;13.73;100.00;94522.16;5116516;27;20194;-60
2022/09/05 03:22:06;;;;;;;1999.90;999.90;;;;;;;13.76;100.00;94524.75;5133292;27;20586;-62
2022/09/05 03:24:54;;;;;;;1999.90;999.90;;;;;;;13.77;100.00;94520.06;5151022;27;20188;-59
2022/09/05 03:27:51;;;;;;;1999.90;999.90;;;;;;;13.77;100.00;94512.56;5120763;28;20190;-59
2022/09/05 03:30:21;;;;;;;1999.90;999.90;;;;;;;13.76;100.00;94516.53;5119565;28;20187;-61
2022/09/05 03:32:58;;;;;;;1999.90;999.90;;;;;;;13.75;100.00;94522.47;5119313;28;20178;-59
2022/09/05 03:35:51;;;;;;;1999.90;999.90;;;;;;;13.79;100.00;94510.16;5118812;28;20572;-60
2022/09/05 03:38:39;;;;;;;1999.90;999.90;;;;;;;13.81;100.00;94509.72;5118792;28;20594;-60
2022/09/05 03:41:35;;;;;;;1999.90;999.90;;;;;;;13.82;100.00;94506.53;5118976;28;20208;-59
2022/09/05 03:44:19;;;;;;;1999.90;999.90;;;;;;;13.79;100.00;94501.94;5119113;28;20191;-60
2022/09/05 03:46:47;;;;;;;1999.90;999.90;;;;;;;13.78;100.00;94502.38;5119506;28;20193;-59
2022/09/05 03:49:27;;;;;;;1999.90;999.90;;;;;;;13.76;100.00;94505.56;5118663;28;20207;-60
2022/09/05 03:52:30;;;;;;;1999.90;999.90;;;;;;;13.71;100.00;94499.88;5119070;28;20198;-59
2022/09/05 03:55:23;;;;;;;1999.90;999.90;;;;;;;13.67;100.00;94502.75;5118722;28;20203;-59
2022/09/05 03:57:55;;;;;;;1999.90;999.90;;;;;;;13.67;100.00;94508.22;5118879;28;20185;-59
2022/09/05 04:00:33;;;;;;;1999.90;999.90;;;;;;;13.63;100.00;94506.81;5118993;28;20198;-60
2022/09/05 04:03:13;;;;;;;1999.90;999.90;;;;;;;13.59;100.00;94509.69;5118914;28;20204;-59
2022/09/05 04:05:51;;;;;;;1999.90;999.90;;;;;;;13.56;100.00;94501.56;5118732;28;20194;-59
2022/09/05 04:08:38;;;;;;;1999.90;999.90;;;;;;;13.53;100.00;94503.22;5118863;28;20218;-60
2022/09/05 04:11:20;;;;;;;1999.90;999.90;;;;;;;13.53;100.00;94495.00;5118450;28;20198;-60
2022/09/05 04:13:55;;;;;;;1999.90;999.90;;;;;;;13.47;100.00;94494.00;5118888;28;20193;-59
2022/09/05 04:16:28;;;;;;;1999.90;999.90;;;;;;;13.50;100.00;94503.31;5118919;28;20190;-59
2022/09/05 04:19:04;;;;;;;1999.90;999.90;;;;;;;13.49;100.00;94493.56;5118273;28;20194;-60
2022/09/05 04:21:34;;;;;;;1999.90;999.90;;;;;;;13.46;100.00;94497.19;5118696;28;20174;-60
2022/09/05 04:24:14;;;;;;;1999.90;999.90;;;;;;;13.46;100.00;94491.72;5118222;28;20182;-59
2022/09/05 04:27:04;;;;;;;1999.90;999.90;;;;;;;13.44;100.00;94483.94;5118730;28;20185;-59
2022/09/05 04:30:03;;;;;;;1999.90;999.90;;;;;;;13.44;100.00;94489.41;5118296;28;20221;-59
2022/09/05 04:32:49;;;;;;;1999.90;999.90;;;;;;;13.45;100.00;94490.97;5118130;28;20186;-59
2022/09/05 04:35:51;;;;;;;1999.90;999.90;;;;;;;13.44;100.00;94486.66;5118467;28;20206;-59
2022/09/05 04:38:42;;;;;;;1999.90;999.90;;;;;;;13.46;100.00;94486.22;5116676;28;20169;-59
2022/09/05 04:41:15;;;;;;;1999.90;999.90;;;;;;;13.42;100.00;94491.06;5118297;28;20181;-59
2022/09/05 04:43:52;;;;;;;1999.90;999.90;;;;;;;13.41;100.00;94484.84;5118236;28;20281;-60
2022/09/05 04:46:23;;;;;;;1999.90;999.90;;;;;;;13.46;100.00;94481.53;5117970;28;20186;-59
2022/09/05 04:48:54;;;;;;;1999.90;999.90;;;;;;;13.62;100.00;94484.09;5117669;28;20214;-59
2022/09/05 04:51:38;;;;;;;1999.90;999.90;;;;;;;13.92;100.00;94472.47;5118180;28;20281;-59
2022/09/05 04:54:25;;;;;;;1999.90;999.90;;;;;;;14.31;100.00;94474.56;5117789;28;20167;-60
2022/09/05 04:57:19;;;;;;;1999.90;999.90;;;;;;;14.70;100.00;94493.06;5117862;28;20239;-60
2022/09/05 05:00:11;;;;;;;1999.90;999.90;;;;;;;15.22;100.00;94509.47;5113727;28;20303;-60
2022/09/05 05:02:38;;;;;;;1999.90;999.90;;;;;;;15.72;100.00;94544.75;5117960;28;20191;-60
2022/09/05 05:05:20;;;;;;;1999.90;999.90;;;;;;;16.14;100.00;94578.75;5117765;28;20667;-60
2022/09/05 05:07:51;;;;;;;1999.90;999.90;;;;;;;16.54;100.00;94627.50;5118110;28;20254;-59
2022/09/05 05:10:26;;;;;;;1999.90;999.90;;;;;;;16.95;100.00;94674.50;5117399;28;20183;-59
2022/09/05 05:13:07;;;;;;;1999.90;999.90;;;;;;;17.38;100.00;94717.50;5117527;28;20229;-60
2022/09/05 05:15:35;;;;;;;1999.90;999.90;;;;;;;17.51;100.00;94754.78;5117128;28;20214;-59
2022/09/05 05:18:23;;;;;;;1999.90;999.90;;;;;;;17.84;100.00;94779.69;5117144;28;20246;-60
2022/09/05 05:21:17;;;;;;;1999.90;999.90;;;;;;;18.13;100.00;94821.38;5117205;28;20198;-59
2022/09/05 05:23:57;;;;;;;1999.90;999.90;;;;;;;18.63;100.00;94837.19;5109850;28;20247;-59
2022/09/05 05:26:31;;;;;;;1999.90;999.90;;;;;;;18.82;100.00;94841.38;5117633;28;20631;-59
2022/09/05 05:29:07;;;;;;;1999.90;999.90;;;;;;;19.45;100.00;94829.94;5117413;28;20191;-60
2022/09/05 05:31:36;;;;;;;1999.90;999.90;;;;;;;19.75;100.00;94837.06;5117518;28;20623;-60
2022/09/05 05:34:12;;;;;;;1999.90;999.90;;;;;;;20.15;100.00;94836.53;5117220;28;20182;-60
2022/09/05 05:36:56;;;;;;;1999.90;999.90;;;;;;;20.38;100.00;94835.63;5117298;28;20185;-60
2022/09/05 05:39:26;;;;;;;1999.90;999.90;;;;;;;20.55;100.00;94843.00;5117657;28;20190;-60
2022/09/05 05:41:56;;;;;;;1999.90;999.90;;;;;;;20.89;100.00;94849.78;5116976;28;20203;-61
2022/09/05 05:44:30;;;;;;;1999.90;999.90;;;;;;;21.13;100.00;94845.63;5135183;28;20663;-60
2022/09/05 05:47:14;;;;;;;1999.90;999.90;;;;;;;21.63;100.00;94849.81;5117232;28;20209;-61
2022/09/05 05:50:04;;;;;;;1999.90;999.90;;;;;;;21.67;100.00;94857.94;5116712;28;20599;-60
2022/09/05 05:53:02;;;;;;;1999.90;999.90;;;;;;;22.46;100.00;94857.00;5135063;28;20186;-60
2022/09/05 05:55:54;;;;;;;1999.90;999.90;;;;;;;22.88;100.00;95058.91;5075735;28;20222;-61
2022/09/05 05:58:41;;;;;;;1999.90;999.90;;;;;;;23.32;100.00;94667.09;5117081;28;20183;-60
2022/09/05 06:01:13;;;;;;;1999.90;999.90;;;;;;;23.21;100.00;94488.72;5116844;28;20678;-61
2022/09/05 06:04:01;;;;;;;1999.90;999.90;;;;;;;23.50;100.00;94364.75;5116639;28;20188;-60
2022/09/05 06:06:58;;;;;;;1999.90;999.90;;;;;;;23.88;100.00;94358.25;5105620;28;20706;-60
2022/09/05 06:10:00;;;;;;;1999.90;999.90;;;;;;;23.71;100.00;94460.78;5117155;28;20191;-60
2022/09/05 06:13:01;;;;;;;1999.90;999.90;;;;;;;23.39;100.00;94446.41;5116807;28;20328;-60
2022/09/05 06:15:38;;;;;;;1999.90;999.90;;;;;;;22.84;100.00;94648.94;5116615;28;20664;-60
2022/09/05 06:18:26;;;;;;;1999.90;999.90;;;;;;;22.37;100.00;94675.50;5116378;28;20636;-61
2022/09/05 06:20:59;;;;;;;1999.90;999.90;;;;;;;22.52;100.00;94676.88;5117232;28;20209;-61
2022/09/05 06:23:56;;;;;;;1999.90;999.90;;;;;;;22.59;100.00;94736.16;5116327;28;20182;-60
2022/09/05 06:26:43;;;;;;;1999.90;999.90;;;;;;;22.51;100.00;94790.75;5117061;28;20616;-60
2022/09/05 06:29:30;;;;;;;1999.90;999.90;;;;;;;22.82;100.00;94815.75;5116823;28;20682;-60
2022/09/05 06:32:26;;;;;;;1999.90;999.90;;;;;;;23.57;100.00;94896.81;5116500;28;20179;-60
2022/09/05 06:35:12;;;;;;;1999.90;999.90;;;;;;;24.20;100.00;94981.81;5116290;28;20206;-60
2022/09/05 06:37:58;;;;;;;1999.90;999.90;;;;;;;25.05;100.00;95055.72;5116307;28;20206;-60
2022/09/05 06:40:26;;;;;;;1999.90;999.90;;;;;;;25.06;100.00;95113.19;5116312;28;20183;-60
2022/09/05 06:43:04;;;;;;;1999.90;999.90;;;;;;;24.57;100.00;95110.94;5116113;28;20183;-61
2022/09/05 06:45:43;;;;;;;1999.90;999.90;;;;;;;24.69;100.00;95095.78;5134251;28;20198;-60
2022/09/05 06:48:26;;;;;;;1999.90;999.90;;;;;;;25.85;100.00;95121.94;5115874;28;20354;-60
2022/09/05 06:51:18;;;;;;;1999.90;999.90;;;;;;;27.02;100.00;95138.00;5116880;28;20183;-60
2022/09/05 06:54:16;;;;;;;1999.90;999.90;;;;;;;26.87;100.00;95227.28;5116701;28;20190;-60
2022/09/05 06:57:09;;;;;;;1999.90;999.90;;;;;;;25.76;100.00;95219.38;5084612;28;20195;-58
2022/09/05 07:00:00;;;;;;;1999.90;999.90;;;;;;;24.67;100.00;95135.41;5116359;28;20236;-59
2022/09/05 07:02:38;;;;;;;1999.90;999.90;;;;;;;24.33;100.00;95099.41;5118923;28;20191;-59
2022/09/05 07:05:32;;;;;;;1999.90;999.90;;;;;;;24.30;100.00;95097.59;5120305;28;20190;-59
2022/09/05 07:08:22;;;;;;;1999.90;999.90;;;;;;;24.32;100.00;95115.38;5119706;28;20211;-59
2022/09/05 07:11:24;;;;;;;1999.90;999.90;;;;;;;24.63;100.00;95128.53;5119375;28;20193;-59
2022/09/05 07:14:10;;;;;;;1999.90;999.90;;;;;;;25.49;100.00;95173.28;5116245;28;20198;-59
2022/09/05 07:16:51;;;;;;;1999.90;999.90;;;;;;;26.00;100.00;95296.03;5119602;28;20251;-59
2022/09/05 07:19:34;;;;;;;1999.90;999.90;;;;;;;26.92;100.00;95397.56;5119658;28;20187;-59
2022/09/05 07:22:06;;;;;;;1999.90;999.90;;;;;;;26.73;100.00;95402.13;5119195;28;20179;-58
2022/09/05 07:24:37;;;;;;;1999.90;999.90;;;;;;;26.00;100.00;95356.88;5119234;28;20190;-59
2022/09/05 07:27:06;;;;;;;1999.90;999.90;;;;;;;26.05;100.00;95348.50;5119132;28;20201;-59
2022/09/05 07:29:36;;;;;;;1999.90;999.90;;;;;;;26.14;100.00;95356.66;5119400;28;20191;-58
2022/09/05 07:32:05;;;;;;;1999.90;999.90;;;;;;;26.07;100.00;95365.56;5118915;28;20186;-59
2022/09/05 07:34:33;;;;;;;1999.90;999.90;;;;;;;26.28;100.00;95368.91;5118909;28;20203;-59
2022/09/05 07:37:24;;;;;;;1999.90;999.90;;;;;;;26.56;100.00;95364.88;5119423;28;20518;-57
2022/09/05 07:39:58;;;;;;;1999.90;999.90;;;;;;;27.79;100.00;95592.44;5118978;28;20274;-59
2022/09/05 07:42:50;;;;;;;1999.90;999.90;;;;;;;27.34;100.00;95613.34;5119296;28;20181;-59
2022/09/05 07:45:25;;;;;;;1999.90;999.90;;;;;;;27.50;100.00;95562.06;5119289;28;20545;-59
2022/09/05 07:48:01;;;;;;;1999.90;999.90;;;;;;;27.71;100.00;95583.00;5119003;28;20174;-59
2022/09/05 07:50:28;;;;;;;1999.90;999.90;;;;;;;28.64;100.00;95645.25;5136892;28;20205;-58
2022/09/05 07:52:57;;;;;;;1999.90;999.90;;;;;;;28.49;100.00;95648.34;5119138;28;20183;-58
2022/09/05 07:55:30;;;;;;;1999.90;999.90;;;;;;;29.71;94.49;95731.06;5118887;28;20231;-59
2022/09/05 07:57:59;;;;;;;1999.90;999.90;;;;;;;30.18;89.42;95755.13;5118671;28;20198;-60
2022/09/05 08:00:27;;;;;;;1999.90;999.90;;;;;;;30.44;89.99;95769.53;5119075;28;20242;-59
2022/09/05 08:02:53;;;;;;;1999.90;999.90;;;;;;;29.94;89.58;95797.25;5118360;28;20175;-59
2022/09/05 08:05:21;;;;;;;1999.90;999.90;;;;;;;29.62;93.78;95801.00;5118011;28;20209;-59
2022/09/05 08:07:54;;;;;;;1999.90;999.90;;;;;;;29.90;89.51;95818.56;5118562;28;20252;-59
2022/09/05 08:10:28;;;;;;;1999.90;999.90;;;;;;;30.16;87.39;95830.22;5118198;28;20187;-59
2022/09/05 08:12:58;;;;;;;1999.90;999.90;;;;;;;29.68;90.45;95830.69;5118489;28;20285;-59
2022/09/05 08:15:26;;;;;;;1999.90;999.90;;;;;;;29.97;88.10;95843.38;5118115;28;20183;-59
2022/09/05 08:18:10;;;;;;;1999.90;999.90;;;;;;;29.48;91.58;95835.84;5118159;28;20232;-59
2022/09/05 08:20:54;;;;;;;1999.90;999.90;;;;;;;29.82;91.59;95840.13;5136726;28;20183;-59
2022/09/05 08:23:39;;;;;;;1999.90;999.90;;;;;;;29.14;90.95;95843.63;5118528;28;20187;-59
2022/09/05 08:26:30;;;;;;;1999.90;999.90;;;;;;;28.77;92.62;95847.97;5118209;28;20211;-59
2022/09/05 08:28:55;;;;;;;1999.90;999.90;;;;;;;30.21;89.39;95844.28;5118259;28;20286;-59
2022/09/05 08:31:33;;;;;;;1999.90;999.90;;;;;;;30.90;80.88;95858.94;5118601;28;20226;-59
2022/09/05 08:34:01;;;;;;;1999.90;999.90;;;;;;;30.79;81.86;95853.41;5117988;28;20232;-60
2022/09/05 08:36:40;;;;;;;1999.90;999.90;;;;;;;31.11;76.49;95862.88;5118044;28;20186;-59
2022/09/05 08:39:09;;;;;;;1999.90;999.90;;;;;;;31.77;75.04;95848.09;5118003;28;20239;-59
2022/09/05 08:42:09;;;;;;;1999.90;999.90;;;;;;;32.68;70.31;95856.38;5117969;28;20219;-59
2022/09/05 08:45:11;;;;;;;1999.90;999.90;;;;;;;32.62;68.62;95855.69;5100101;28;20293;-59
2022/09/05 08:47:46;;;;;;;1999.90;999.90;;;;;;;32.15;71.74;95852.50;5117720;28;20182;-59
2022/09/05 08:50:14;;;;;;;1999.90;999.90;;;;;;;33.10;66.33;95849.81;5118182;28;20190;-59
2022/09/05 08:53:02;;;;;;;1999.90;999.90;;;;;;;31.06;76.19;95855.22;5118091;28;20274;-59
2022/09/05 08:55:38;;;;;;;1999.90;999.90;;;;;;;32.10;68.59;95850.50;5117779;28;20270;-58
2022/09/05 08:58:22;;;;;;;1999.90;999.90;;;;;;;33.60;63.69;95841.94;5117895;28;20186;-58
2022/09/05 09:00:58;;;;;;;1999.90;999.90;;;;;;;32.66;66.93;95845.59;5117898;28;20221;-59
2022/09/05 09:03:34;;;;;;;1999.90;999.90;;;;;;;33.00;67.90;95846.59;5117388;28;20189;-59
2022/09/05 09:06:13;;;;;;;1999.90;999.90;;;;;;;31.89;73.82;95846.66;5117236;28;20206;-59
2022/09/05 09:09:09;;;;;;;1999.90;999.90;;;;;;;32.99;68.80;95842.25;5117785;28;20175;-59
2022/09/05 09:11:49;;;;;;;1999.90;999.90;;;;;;;33.04;66.67;95837.81;5117800;28;20224;-59
2022/09/05 09:14:50;;;;;;;1999.90;999.90;;;;;;;32.68;66.99;95842.25;5117911;28;20186;-59
2022/09/05 09:17:25;;;;;;;1999.90;999.90;;;;;;;32.30;68.93;95838.66;5105907;28;20202;-59
2022/09/05 09:19:50;;;;;;;1999.90;999.90;;;;;;;33.12;66.43;95830.97;5117422;28;20190;-59
2022/09/05 09:22:15;;;;;;;1999.90;999.90;;;;;;;33.66;61.64;95828.44;5117559;28;20190;-59
2022/09/05 09:25:07;;;;;;;1999.90;999.90;;;;;;;33.72;62.33;95828.34;5116493;28;20234;-59
2022/09/05 09:28:14;;;;;;;1999.90;999.90;;;;;;;34.75;58.40;95828.66;5125736;28;20191;-59
2022/09/05 09:30:45;;;;;;;1999.90;999.90;;;;;;;34.77;57.87;95826.03;5106363;28;20207;-59
2022/09/05 09:33:21;;;;;;;1999.90;999.90;;;;;;;34.51;60.53;95826.13;5117222;28;20163;-58
2022/09/05 09:35:58;;;;;;;1999.90;999.90;;;;;;;33.93;62.10;95828.44;5117401;28;20186;-59
2022/09/05 09:38:44;;;;;;;1999.90;999.90;;;;;;;34.43;59.26;95819.63;5116967;28;20179;-59
2022/09/05 09:41:28;;;;;;;1999.90;999.90;;;;;;;33.94;59.79;95818.63;5116970;28;20198;-58
2022/09/05 09:44:45;;;;;;;1999.90;999.90;;;;;;;32.95;63.44;95821.22;5117429;28;20185;-59
2022/09/05 09:47:16;;;;;;;1999.90;999.90;;;;;;;32.24;65.16;95826.66;5116794;28;20199;-59
2022/09/05 09:50:21;;;;;;;1999.90;999.90;;;;;;;32.22;65.55;95817.94;5116345;28;20195;-59
2022/09/05 09:53:02;;;;;;;1999.90;999.90;;;;;;;32.54;62.21;95821.63;5117065;28;20222;-60
2022/09/05 09:55:44;;;;;;;1999.90;999.90;;;;;;;32.29;63.67;95822.22;5116642;28;20171;-59
2022/09/05 09:58:35;;;;;;;1999.90;999.90;;;;;;;32.05;68.67;95814.59;5116962;28;20266;-59
2022/09/05 10:01:20;;;;;;;1999.90;999.90;;;;;;;31.15;66.71;95826.66;5117245;28;20221;-59
2022/09/05 10:04:23;;;;;;;1999.90;999.90;;;;;;;30.73;73.55;95822.41;5134836;28;20197;-59
2022/09/05 10:07:09;;;;;;;1999.90;999.90;;;;;;;31.16;67.05;95821.78;5116528;28;20202;-57
2022/09/05 10:09:42;;;;;;;1999.90;999.90;;;;;;;31.82;68.14;95824.66;5117127;28;20178;-59
2022/09/05 10:12:21;;;;;;;1999.90;999.90;;;;;;;31.71;65.30;95824.75;5116947;28;20189;-58
2022/09/05 10:15:01;;;;;;;1999.90;999.90;;;;;;;31.99;63.33;95819.56;5116911;28;20193;-59
2022/09/05 10:17:43;;;;;;;1999.90;999.90;;;;;;;30.77;68.87;95828.53;5116759;28;20182;-58
2022/09/05 10:20:28;;;;;;;1999.90;999.90;;;;;;;31.40;65.11;95828.22;5116316;28;20180;-59
2022/09/05 10:23:06;;;;;;;1999.90;999.90;;;;;;;31.59;65.04;95816.94;5116937;28;20182;-58
2022/09/05 10:25:59;;;;;;;1999.90;999.90;;;;;;;32.11;63.08;95808.88;5116796;28;20199;-59
2022/09/05 10:28:57;;;;;;;1999.90;999.90;;;;;;;32.44;58.73;95816.91;5116225;28;20187;-59
2022/09/05 10:31:55;;;;;;;1999.90;999.90;;;;;;;31.76;61.53;95815.47;5116200;28;20179;-59
2022/09/05 10:34:24;;;;;;;1999.90;999.90;;;;;;;32.08;60.58;95812.75;5116140;28;20183;-58
2022/09/05 10:37:03;;;;;;;1999.90;999.90;;;;;;;33.21;57.12;95804.31;5117892;28;20194;-58
2022/09/05 10:39:32;;;;;;;1999.90;999.90;;;;;;;34.10;55.49;95809.75;5119914;28;20174;-59
2022/09/05 10:42:07;;;;;;;1999.90;999.90;;;;;;;33.93;53.18;95805.75;5120395;28;20191;-59
2022/09/05 10:44:40;;;;;;;1999.90;999.90;;;;;;;33.30;54.95;95801.03;5119988;28;20283;-58
2022/09/05 10:47:47;;;;;;;1999.90;999.90;;;;;;;33.44;54.73;95797.69;5120098;28;20187;-60
2022/09/05 10:50:34;;;;;;;1999.90;999.90;;;;;;;33.46;54.56;95785.78;5108717;28;20191;-58
2022/09/05 10:53:23;;;;;;;1999.90;999.90;;;;;;;33.54;55.62;95781.03;5120332;28;20278;-59
2022/09/05 10:56:09;;;;;;;1999.90;999.90;;;;;;;34.29;53.60;95781.97;5120039;28;20215;-59
2022/09/05 10:58:57;;;;;;;1999.90;999.90;;;;;;;34.28;55.45;95786.13;5120021;28;20179;-58
2022/09/05 11:01:41;;;;;;;1999.90;999.90;;;;;;;34.20;51.05;95781.69;5119377;28;20191;-58
2022/09/05 11:04:31;;;;;;;1999.90;999.90;;;;;;;34.17;50.04;95785.63;5119392;28;20179;-59
2022/09/05 11:07:03;;;;;;;1999.90;999.90;;;;;;;33.27;59.93;95768.88;5119832;28;20207;-58
2022/09/05 11:09:35;;;;;;;1999.90;999.90;;;;;;;33.33;57.41;95766.75;5119440;28;20264;-58
2022/09/05 11:12:09;;;;;;;1999.90;999.90;;;;;;;32.62;61.34;95776.47;5119320;28;20190;-58
2022/09/05 11:14:50;;;;;;;1999.90;999.90;;;;;;;32.86;61.32;95771.47;5119401;28;20193;-59
2022/09/05 11:17:29;;;;;;;1999.90;999.90;;;;;;;31.62;58.43;95771.47;5119684;28;20251;-58
2022/09/05 11:20:25;;;;;;;1999.90;999.90;;;;;;;31.59;64.45;95772.53;5119089;28;20183;-59
2022/09/05 11:23:01;;;;;;;1999.90;999.90;;;;;;;31.31;65.38;95771.31;5119360;28;20171;-59
2022/09/05 11:25:29;;;;;;;1999.90;999.90;;;;;;;31.30;66.68;95779.03;5119509;28;20210;-57
2022/09/05 11:28:01;;;;;;;1999.90;999.90;;;;;;;31.48;65.03;95769.81;5119251;28;20224;-57
2022/09/05 11:30:38;;;;;;;1999.90;999.90;;;;;;;31.14;68.78;95768.66;5119715;28;20187;-58
2022/09/05 11:33:11;;;;;;;1999.90;999.90;;;;;;;30.05;71.45;95768.25;5119586;28;20182;-58
2022/09/05 11:36:06;;;;;;;1999.90;999.90;;;;;;;28.38;82.28;95769.97;5119268;28;20191;-58
2022/09/05 11:38:38;;;;;;;1999.90;999.90;;;;;;;28.18;85.91;95764.59;5118905;28;20194;-59
2022/09/05 11:41:43;;;;;;;1999.90;999.90;;;;;;;27.93;89.97;95757.16;5118714;28;20273;-57
2022/09/05 11:44:34;;;;;;;1999.90;999.90;;;;;;;27.90;86.82;95760.97;5119661;28;20187;-58
2022/09/05 11:47:09;;;;;;;1999.90;999.90;;;;;;;28.17;84.86;95757.47;5119117;28;20266;-59
2022/09/05 11:49:56;;;;;;;1999.90;999.90;;;;;;;28.40;84.84;95751.84;5118854;28;20202;-58
2022/09/05 11:52:59;;;;;;;1999.90;999.90;;;;;;;28.51;84.58;95754.69;5119276;28;20194;-58
2022/09/05 11:55:31;;;;;;;1999.90;999.90;;;;;;;27.61;88.34;95744.53;5118698;28;20193;-57
2022/09/05 11:58:12;;;;;;;1999.90;999.90;;;;;;;27.76;89.65;95752.75;5118797;28;20187;-58